Time;durP1;ratioP1;P1;durP2;ratioP2;P2;SDS_P1;SDS_P2;PMS_P1;PMS_P2;Temp;Humidity;BMP_temperature;BMP_pressure;BME280_temperature;BME280_humidity;BME280_pressure;Samples;Min_cycle;Max_cycle;Signal;HPM_P1;HPM_P2
2021/12/27 00:02:15;;;;;;;71.65;31.05;;;;;;;-10.75;59.15;101519.34;5011078;28;20099;-48
2021/12/27 00:04:41;;;;;;;62.75;28.50;;;;;;;-10.74;59.28;101515.81;5016169;28;20439;-49
2021/12/27 00:07:06;;;;;;;72.65;30.90;;;;;;;-10.77;59.05;101521.19;5012544;28;20030;-48
2021/12/27 00:09:32;;;;;;;66.00;28.55;;;;;;;-10.76;59.01;101522.84;5016039;28;20083;-49
2021/12/27 00:11:57;;;;;;;66.82;28.30;;;;;;;-10.79;59.21;101523.00;5009435;28;20083;-49
2021/12/27 00:14:23;;;;;;;66.80;28.40;;;;;;;-10.81;59.03;101517.09;5012320;28;20021;-49
2021/12/27 00:16:48;;;;;;;65.47;29.42;;;;;;;-10.80;59.10;101516.16;4996604;28;20022;-49
2021/12/27 00:19:14;;;;;;;63.85;28.00;;;;;;;-10.81;59.13;101517.09;5007292;28;20045;-48
2021/12/27 00:21:39;;;;;;;64.35;29.10;;;;;;;-10.84;58.73;101509.50;5022673;28;20087;-49
2021/12/27 00:24:05;;;;;;;68.07;28.00;;;;;;;-10.85;59.01;101502.69;4999542;28;20038;-49
2021/12/27 00:26:31;;;;;;;62.67;28.10;;;;;;;-10.85;59.15;101499.25;5011584;28;20033;-49
2021/12/27 00:28:56;;;;;;;66.03;29.35;;;;;;;-10.88;58.79;101497.69;5014532;28;20033;-49
2021/12/27 00:31:22;;;;;;;71.07;29.40;;;;;;;-10.88;58.97;101495.09;5014350;28;20499;-49
2021/12/27 00:33:48;;;;;;;67.70;29.63;;;;;;;-10.89;58.84;101487.44;5013884;28;20026;-48
2021/12/27 00:36:14;;;;;;;68.07;29.10;;;;;;;-10.89;59.11;101488.25;5020048;28;20435;-49
2021/12/27 00:38:39;;;;;;;73.38;30.90;;;;;;;-10.90;58.65;101473.66;5015800;28;20229;-49
2021/12/27 00:41:05;;;;;;;81.20;31.67;;;;;;;-10.93;58.88;101468.66;5010242;28;20259;-49
2021/12/27 00:43:30;;;;;;;66.28;30.80;;;;;;;-10.94;59.08;101463.59;5014691;28;20036;-48
2021/12/27 00:45:56;;;;;;;63.67;31.55;;;;;;;-10.95;58.95;101465.31;5014092;28;20080;-48
2021/12/27 00:48:21;;;;;;;77.47;30.83;;;;;;;-10.96;58.80;101463.66;5019667;28;20305;-48
2021/12/27 00:50:47;;;;;;;74.38;30.85;;;;;;;-10.99;59.20;101469.00;5018858;28;20503;-48
2021/12/27 00:53:13;;;;;;;80.13;33.55;;;;;;;-11.03;58.86;101477.88;5016980;28;20033;-49
2021/12/27 00:55:38;;;;;;;80.85;33.45;;;;;;;-11.24;58.77;101477.41;5017255;28;20056;-49
2021/12/27 00:58:04;;;;;;;73.00;32.20;;;;;;;-11.39;59.43;101466.19;5013379;28;20273;-50
2021/12/27 01:00:30;;;;;;;76.30;32.55;;;;;;;-11.38;59.59;101465.28;5015223;28;20034;-48
2021/12/27 01:02:56;;;;;;;73.13;30.85;;;;;;;-11.30;59.40;101455.34;5013793;28;20022;-48
2021/12/27 01:05:25;;;;;;;69.75;30.10;;;;;;;-11.26;59.51;101452.56;5020443;28;20701;-49
2021/12/27 01:07:51;;;;;;;66.22;31.02;;;;;;;-11.21;59.27;101458.28;5017435;28;20030;-49
2021/12/27 01:13:05;;;;;;;71.45;31.48;;;;;;;-11.20;59.19;101457.34;5018306;28;20025;-49
2021/12/27 01:15:46;;;;;;;67.55;28.92;;;;;;;-11.21;58.92;101450.53;5011671;28;20140;-48
2021/12/27 01:18:12;;;;;;;68.90;30.38;;;;;;;-11.19;58.96;101446.09;5017266;28;20026;-48
2021/12/27 01:20:38;;;;;;;65.45;29.55;;;;;;;-11.19;58.94;101446.09;5016719;28;20080;-48
2021/12/27 01:23:04;;;;;;;61.40;30.15;;;;;;;-11.19;59.07;101446.91;5017873;28;20076;-48
2021/12/27 01:25:30;;;;;;;67.78;29.27;;;;;;;-11.18;59.11;101446.00;5011494;28;20040;-48
2021/12/27 01:27:56;;;;;;;69.40;30.05;;;;;;;-11.17;58.67;101445.06;5015118;28;20033;-48
2021/12/27 01:30:22;;;;;;;68.40;29.83;;;;;;;-11.20;58.86;101429.72;5013246;28;20025;-49
2021/12/27 01:32:55;;;;;;;68.20;30.15;;;;;;;-11.22;58.91;101431.59;5012293;28;20549;-49
2021/12/27 01:35:22;;;;;;;76.03;30.80;;;;;;;-11.24;58.71;101428.25;5017799;28;20039;-50
2021/12/27 01:37:51;;;;;;;70.50;30.48;;;;;;;-11.22;58.68;101435.94;5013151;28;20462;-49
2021/12/27 01:40:20;;;;;;;72.35;30.88;;;;;;;-11.24;58.68;101430.84;5010334;28;20037;-48
2021/12/27 01:43:05;;;;;;;80.30;32.88;;;;;;;-11.26;58.75;101429.28;5014213;28;20385;-48
2021/12/27 01:45:31;;;;;;;;;;;;;;;-11.29;58.97;101428.53;5015321;28;20034;-49
2021/12/27 01:47:56;;;;;;;76.90;30.52;;;;;;;-11.31;58.38;101447.63;5013112;28;19932;-49
2021/12/27 01:50:22;;;;;;;74.75;31.95;;;;;;;-11.34;58.81;101437.47;5015035;28;20057;-48
2021/12/27 01:52:48;;;;;;;78.68;33.13;;;;;;;-11.39;58.83;101445.50;5013930;28;20044;-49
2021/12/27 01:55:13;;;;;;;71.57;30.92;;;;;;;-11.60;59.00;101446.75;5014593;28;20026;-48
2021/12/27 01:57:39;;;;;;;79.10;32.10;;;;;;;-11.72;59.36;101442.28;5011988;28;20029;-49
2021/12/27 02:00:05;;;;;;;72.13;31.75;;;;;;;-11.68;59.63;101444.59;5014744;28;20251;-49
2021/12/27 02:02:31;;;;;;;71.47;31.75;;;;;;;-11.60;59.31;101429.50;5018126;28;20036;-49
2021/12/27 02:04:57;;;;;;;81.75;32.50;;;;;;;-11.54;59.59;101419.72;5013649;28;20053;-49
2021/12/27 02:07:22;;;;;;;74.93;32.10;;;;;;;-11.51;59.34;101415.19;5016825;28;20041;-48
2021/12/27 02:10:00;;;;;;;80.15;32.08;;;;;;;-11.48;59.08;101417.63;5011003;28;20034;-48
2021/12/27 02:12:25;;;;;;;75.20;32.95;;;;;;;-11.46;58.78;101415.78;5011771;28;20496;-48
2021/12/27 02:14:51;;;;;;;81.05;30.50;;;;;;;-11.46;59.18;101407.19;5017053;28;20069;-49
2021/12/27 02:17:20;;;;;;;80.03;31.25;;;;;;;-11.49;58.96;101415.09;5011040;28;20535;-49
2021/12/27 02:19:50;;;;;;;71.07;30.95;;;;;;;-11.50;58.82;101405.69;5014376;28;20104;-48
2021/12/27 02:22:16;;;;;;;67.90;29.17;;;;;;;-11.53;58.79;101388.59;5015086;28;20579;-49
2021/12/27 02:24:42;;;;;;;76.95;32.90;;;;;;;-11.77;58.55;101398.63;5010883;28;20033;-48
2021/12/27 02:27:07;;;;;;;77.50;31.77;;;;;;;-12.59;60.00;101396.38;5012021;28;20413;-49
2021/12/27 02:29:33;;;;;;;81.22;32.20;;;;;;;-12.73;61.04;101391.16;5011146;28;20034;-47
2021/12/27 02:31:59;;;;;;;82.68;32.60;;;;;;;-12.54;61.17;101384.09;5013179;28;20033;-49
2021/12/27 02:34:25;;;;;;;79.43;31.00;;;;;;;-12.35;60.98;101383.06;5013881;28;20518;-49
2021/12/27 02:36:50;;;;;;;78.78;31.45;;;;;;;-12.24;60.55;101375.53;5018463;28;20032;-48
2021/12/27 02:39:17;;;;;;;73.93;31.70;;;;;;;-12.12;60.33;101382.59;5012997;28;20022;-49
2021/12/27 02:41:43;;;;;;;71.85;31.27;;;;;;;-12.02;60.34;101378.56;5014232;28;20044;-49
2021/12/27 02:44:08;;;;;;;71.20;31.60;;;;;;;-11.96;59.55;101373.03;5000748;28;20542;-49
2021/12/27 02:46:34;;;;;;;68.72;29.75;;;;;;;-11.92;59.62;101364.19;5013030;28;20080;-50
2021/12/27 02:48:59;;;;;;;76.90;31.65;;;;;;;-11.98;59.35;101350.81;5012431;28;20379;-52
2021/12/27 02:51:25;;;;;;;76.72;31.15;;;;;;;-12.08;59.33;101360.81;5012803;28;20477;-50
2021/12/27 02:53:51;;;;;;;65.53;29.92;;;;;;;-12.14;59.97;101361.19;5011638;28;20624;-49
2021/12/27 02:56:18;;;;;;;75.00;30.95;;;;;;;-12.13;60.00;101362.84;5017247;28;20024;-50
2021/12/27 02:58:45;;;;;;;67.13;29.08;;;;;;;-12.08;60.14;101347.06;5011968;28;20516;-51
2021/12/27 03:01:20;;;;;;;64.30;29.52;;;;;;;-12.02;60.05;101347.56;5018842;28;20555;-49
2021/12/27 03:03:46;;;;;;;64.15;28.77;;;;;;;-12.04;60.01;101354.56;5015802;28;20037;-53
2021/12/27 03:06:12;;;;;;;73.57;29.88;;;;;;;-12.24;61.49;101354.84;5014982;28;20064;-52
2021/12/27 03:08:39;;;;;;;78.13;29.55;;;;;;;-12.67;65.64;101359.84;5009993;28;20037;-49
2021/12/27 03:11:07;;;;;;;74.68;30.60;;;;;;;-12.55;63.22;101354.03;5014619;28;20492;-49
2021/12/27 03:13:35;;;;;;;79.45;31.73;;;;;;;-12.39;63.24;101355.72;5011824;28;20067;-52
2021/12/27 03:16:10;;;;;;;73.20;30.20;;;;;;;-12.37;62.92;101352.16;5015877;28;20060;-51
2021/12/27 03:18:39;;;;;;;64.82;29.75;;;;;;;-12.30;62.90;101350.06;5015656;28;20034;-50
2021/12/27 03:21:06;;;;;;;67.10;27.95;;;;;;;-12.19;62.47;101365.78;5014388;28;20110;-51
2021/12/27 03:23:32;;;;;;;67.82;29.33;;;;;;;-12.13;62.24;101362.84;5016154;28;20289;-53
2021/12/27 03:25:58;;;;;;;71.53;31.08;;;;;;;-12.16;62.36;101357.84;5010363;28;20099;-51
2021/12/27 03:28:23;;;;;;;71.07;30.38;;;;;;;-12.07;62.14;101353.91;5013768;28;20076;-50
2021/12/27 03:30:50;;;;;;;71.63;30.85;;;;;;;-11.95;61.66;101343.69;5014397;28;20028;-49
2021/12/27 03:33:17;;;;;;;77.22;30.77;;;;;;;-11.91;61.67;101340.00;5012856;28;20021;-53
2021/12/27 03:35:51;;;;;;;85.68;33.60;;;;;;;-11.82;61.62;101340.41;5009142;28;20516;-52
2021/12/27 03:38:17;;;;;;;;;;;;;;;-11.74;62.08;101340.75;5011625;28;20522;-53
2021/12/27 03:40:44;;;;;;;83.03;33.28;;;;;;;-11.66;62.90;101336.81;5009569;28;19917;-51
2021/12/27 03:43:10;;;;;;;86.38;36.25;;;;;;;-11.55;62.76;101332.72;5014906;28;20053;-51
2021/12/27 03:45:38;;;;;;;87.78;36.10;;;;;;;-11.50;62.95;101333.28;5017373;28;20580;-50
2021/12/27 03:48:06;;;;;;;97.13;36.58;;;;;;;-11.40;63.19;101318.88;5012679;28;20045;-53
2021/12/27 03:50:32;;;;;;;92.90;36.60;;;;;;;-11.33;63.95;101309.81;5011098;28;20026;-53
2021/12/27 03:52:58;;;;;;;103.68;38.47;;;;;;;-11.25;64.04;101309.34;5011498;28;20112;-50
2021/12/27 03:55:26;;;;;;;92.95;37.42;;;;;;;-11.18;64.07;101302.88;5016577;28;20523;-49
2021/12/27 03:57:54;;;;;;;89.70;36.97;;;;;;;-11.10;64.18;101304.06;5020955;28;20034;-49
2021/12/27 04:02:50;;;;;;;87.88;37.47;;;;;;;-10.97;64.98;101292.00;5019427;28;20377;-50
2021/12/27 04:05:17;;;;;;;95.57;38.92;;;;;;;-10.89;65.63;101299.31;5019165;28;20112;-53
2021/12/27 04:07:45;;;;;;;92.90;38.00;;;;;;;-10.83;65.53;101288.56;5015274;28;20116;-51
2021/12/27 04:10:11;;;;;;;100.50;39.35;;;;;;;-10.77;66.01;101292.50;5016780;28;20029;-50
2021/12/27 04:12:38;;;;;;;92.15;38.40;;;;;;;-10.73;65.90;101294.00;5021240;28;20482;-49
2021/12/27 04:15:06;;;;;;;82.80;35.38;;;;;;;-10.69;65.94;101290.28;5021164;28;20038;-50
2021/12/27 04:17:32;;;;;;;85.70;36.20;;;;;;;-10.70;66.18;101286.84;5021752;28;20291;-52
2021/12/27 04:19:58;;;;;;;91.80;35.65;;;;;;;-10.68;66.14;101290.16;5014573;28;20485;-48
2021/12/27 04:22:24;;;;;;;88.65;37.38;;;;;;;-10.67;66.29;101280.63;5016845;28;20030;-49
2021/12/27 04:24:49;;;;;;;85.63;35.50;;;;;;;-10.63;66.43;101291.63;5015565;28;20165;-51
2021/12/27 04:27:15;;;;;;;86.82;34.28;;;;;;;-10.60;66.18;101291.44;5018807;28;20023;-51
2021/12/27 04:29:40;;;;;;;89.63;35.08;;;;;;;-10.58;66.14;101277.47;5017909;28;20036;-53
2021/12/27 04:32:07;;;;;;;79.07;35.13;;;;;;;-10.55;66.32;101277.28;5016811;28;20040;-49
2021/12/27 04:34:32;;;;;;;87.47;34.13;;;;;;;-10.54;66.53;101259.97;5014854;28;20473;-51
2021/12/27 04:36:58;;;;;;;85.03;34.80;;;;;;;-10.49;66.52;101257.91;5016922;28;20044;-49
2021/12/27 04:39:23;;;;;;;82.43;34.35;;;;;;;-10.48;66.70;101256.97;5025225;28;20023;-51
2021/12/27 04:41:49;;;;;;;79.30;34.15;;;;;;;-10.51;67.36;101254.59;5015791;28;20082;-50
2021/12/27 04:44:15;;;;;;;85.10;35.20;;;;;;;-10.50;67.27;101258.84;5018872;28;20021;-52
2021/12/27 04:46:41;;;;;;;86.00;34.05;;;;;;;-10.51;67.71;101262.34;5015727;28;20021;-50
2021/12/27 04:49:06;;;;;;;80.07;32.65;;;;;;;-10.50;67.71;101257.06;5021937;28;20477;-50
2021/12/27 04:51:32;;;;;;;82.20;34.47;;;;;;;-10.53;67.98;101262.47;5016196;28;20186;-53
2021/12/27 04:53:58;;;;;;;89.22;34.72;;;;;;;-10.58;68.67;101266.28;5020229;28;20481;-50
2021/12/27 04:56:23;;;;;;;82.13;34.28;;;;;;;-10.60;68.55;101273.28;5017620;28;20065;-50
2021/12/27 04:58:49;;;;;;;82.18;34.97;;;;;;;-10.63;69.03;101266.56;5021427;28;20421;-50
2021/12/27 05:01:15;;;;;;;86.28;34.47;;;;;;;-10.56;68.24;101256.66;5017571;28;20086;-51
2021/12/27 05:03:41;;;;;;;79.88;31.90;;;;;;;-10.54;68.08;101263.38;5017309;28;20472;-51
2021/12/27 05:06:07;;;;;;;85.00;35.03;;;;;;;-10.51;67.89;101257.19;5013385;28;20422;-52
2021/12/27 05:08:33;;;;;;;88.18;33.90;;;;;;;-10.55;68.57;101248.78;5015312;28;20065;-52
2021/12/27 05:10:59;;;;;;;84.65;33.95;;;;;;;-10.48;68.02;101247.44;5020179;28;20096;-51
2021/12/27 05:13:24;;;;;;;76.90;32.38;;;;;;;-10.40;67.37;101254.72;5016656;28;20056;-51
2021/12/27 05:15:50;;;;;;;88.07;35.72;;;;;;;-10.38;67.78;101247.69;5017657;28;20081;-52
2021/12/27 05:18:16;;;;;;;89.15;35.08;;;;;;;-10.29;67.17;101238.44;5017090;28;20368;-52
2021/12/27 05:20:41;;;;;;;83.50;34.50;;;;;;;-10.26;67.09;101235.66;5010752;28;20034;-52
2021/12/27 05:23:07;;;;;;;72.22;31.92;;;;;;;-10.27;67.35;101237.41;5016619;28;20030;-51
2021/12/27 05:25:33;;;;;;;87.88;33.67;;;;;;;-10.24;67.09;101244.97;5017135;28;20052;-53
2021/12/27 05:27:58;;;;;;;85.22;34.47;;;;;;;-10.18;66.55;101239.38;5016286;28;20170;-51
2021/12/27 05:30:24;;;;;;;86.57;32.05;;;;;;;-10.14;66.87;101238.22;5014060;28;20159;-49
2021/12/27 05:32:49;;;;;;;79.40;31.65;;;;;;;-10.11;66.94;101226.81;5017454;28;20124;-52
2021/12/27 05:35:16;;;;;;;76.35;30.52;;;;;;;-10.08;66.65;101224.84;5014626;28;20025;-53
2021/12/27 05:37:42;;;;;;;84.60;32.80;;;;;;;-10.05;66.70;101229.03;5013423;28;20039;-49
2021/12/27 05:40:12;;;;;;;81.10;31.35;;;;;;;-10.01;66.88;101216.69;5011416;28;20135;-51
2021/12/27 05:42:37;;;;;;;78.50;30.35;;;;;;;-10.03;67.00;101221.16;5013354;28;20037;-49
2021/12/27 05:45:06;;;;;;;72.97;29.70;;;;;;;-10.02;67.13;101218.44;5015413;28;20037;-51
2021/12/27 05:47:32;;;;;;;80.35;33.15;;;;;;;-9.99;67.02;101223.41;5015210;28;20439;-53
2021/12/27 05:49:58;;;;;;;79.78;29.48;;;;;;;-10.01;67.11;101227.88;5010744;28;20116;-49
2021/12/27 05:52:23;;;;;;;81.85;33.03;;;;;;;-9.99;67.17;101217.41;5018140;28;20079;-49
2021/12/27 05:54:49;;;;;;;75.95;32.38;;;;;;;-9.94;66.70;101218.75;5011895;28;20041;-51
2021/12/27 05:57:14;;;;;;;73.00;31.00;;;;;;;-9.88;66.80;101220.91;5016715;28;20017;-50
2021/12/27 05:59:40;;;;;;;84.43;32.35;;;;;;;-9.84;66.81;101219.78;5012827;28;20025;-51
2021/12/27 06:02:05;;;;;;;78.15;32.20;;;;;;;-9.81;67.13;101216.97;5014843;28;20069;-49
2021/12/27 06:04:31;;;;;;;83.85;32.30;;;;;;;-9.77;67.06;101217.59;5012837;28;20018;-52
2021/12/27 06:06:56;;;;;;;81.85;34.78;;;;;;;-9.73;67.17;101218.19;5012280;28;20405;-49
2021/12/27 06:09:22;;;;;;;75.75;33.28;;;;;;;-9.69;66.96;101210.13;5013288;28;20026;-52
2021/12/27 06:11:47;;;;;;;83.07;31.13;;;;;;;-9.68;66.90;101206.59;5001931;28;20026;-51
2021/12/27 06:14:13;;;;;;;81.20;31.60;;;;;;;-9.64;66.91;101202.84;5018065;28;20083;-49
2021/12/27 06:16:39;;;;;;;75.25;31.23;;;;;;;-9.64;67.62;101196.81;5013593;28;20536;-49
2021/12/27 06:19:04;;;;;;;71.22;29.63;;;;;;;-9.64;67.48;101197.66;4998971;28;20103;-49
2021/12/27 06:21:31;;;;;;;82.47;30.30;;;;;;;-9.59;67.33;101207.69;5015942;28;20033;-49
2021/12/27 06:23:57;;;;;;;76.32;30.67;;;;;;;-9.60;67.01;101199.09;5013703;28;20053;-49
2021/12/27 06:26:22;;;;;;;78.13;30.85;;;;;;;-9.57;67.28;101198.03;5016973;28;20382;-51
2021/12/27 06:28:48;;;;;;;74.30;30.15;;;;;;;-9.56;67.31;101210.91;5016421;28;20036;-52
2021/12/27 06:31:14;;;;;;;71.05;29.98;;;;;;;-9.53;67.06;101209.84;5013861;28;20029;-51
2021/12/27 06:33:39;;;;;;;74.88;30.38;;;;;;;-9.51;67.22;101203.66;5011745;28;20041;-52
2021/12/27 06:36:05;;;;;;;73.28;29.15;;;;;;;-9.50;67.06;101207.91;5013488;28;20530;-49
2021/12/27 06:38:31;;;;;;;78.30;28.75;;;;;;;-9.46;67.34;101208.50;5014089;28;20025;-50
2021/12/27 06:40:58;;;;;;;74.63;28.73;;;;;;;-9.48;67.17;101206.03;4998672;28;20037;-49
2021/12/27 06:43:24;;;;;;;76.63;29.45;;;;;;;-9.47;67.22;101192.13;5012869;28;20026;-50
2021/12/27 06:45:49;;;;;;;76.38;29.45;;;;;;;-9.46;67.33;101191.16;5013711;28;20024;-49
2021/12/27 06:48:15;;;;;;;69.13;28.45;;;;;;;-9.45;67.16;101198.03;5010261;28;20038;-53
2021/12/27 06:50:41;;;;;;;74.47;28.92;;;;;;;-9.45;67.32;101195.44;5003673;28;20049;-49
2021/12/27 06:53:07;;;;;;;77.55;30.40;;;;;;;-9.43;67.22;101202.25;5014649;28;20060;-52
2021/12/27 06:55:32;;;;;;;66.22;28.83;;;;;;;-9.43;67.83;101203.09;5018327;28;20021;-51
2021/12/27 06:57:58;;;;;;;76.03;31.75;;;;;;;-9.45;67.85;101199.78;5012182;28;20026;-49
2021/12/27 07:00:23;;;;;;;81.05;31.02;;;;;;;-9.41;67.86;101203.81;5015516;28;20036;-50
2021/12/27 07:02:49;;;;;;;74.05;29.65;;;;;;;-9.41;67.30;101203.81;5012558;28;20052;-53
2021/12/27 07:05:14;;;;;;;76.93;29.98;;;;;;;-9.35;67.07;101197.34;5011971;28;20053;-49
2021/12/27 07:07:41;;;;;;;79.93;32.88;;;;;;;-9.32;67.20;101199.75;5013526;28;20049;-49
2021/12/27 07:10:09;;;;;;;81.72;30.42;;;;;;;-9.30;67.44;101203.06;5011386;28;20034;-49
2021/12/27 07:12:35;;;;;;;81.43;31.05;;;;;;;-9.25;67.42;101204.38;5011163;28;20021;-51
2021/12/27 07:15:00;;;;;;;79.60;29.48;;;;;;;-9.25;67.38;101200.97;4995321;28;20091;-49
2021/12/27 07:17:26;;;;;;;77.43;29.70;;;;;;;-9.20;67.56;101206.66;5013781;28;20021;-49
2021/12/27 07:19:52;;;;;;;84.15;31.17;;;;;;;-9.18;67.31;101207.38;5008988;28;20021;-50
2021/12/27 07:22:18;;;;;;;84.65;31.42;;;;;;;-9.16;67.18;101205.47;5013217;28;20057;-50
2021/12/27 07:24:43;;;;;;;78.75;30.15;;;;;;;-9.15;67.05;101205.41;5016341;28;20561;-53
2021/12/27 07:27:09;;;;;;;68.07;29.08;;;;;;;-9.15;67.57;101218.38;5015704;28;20108;-51
2021/12/27 07:29:34;;;;;;;78.05;29.67;;;;;;;-9.12;67.32;101219.91;5016305;28;20057;-51
2021/12/27 07:32:00;;;;;;;68.60;28.13;;;;;;;-9.09;67.06;101219.69;5018500;28;20029;-49
2021/12/27 07:34:27;;;;;;;72.22;29.77;;;;;;;-9.06;67.04;101210.84;5012198;28;20401;-49
2021/12/27 07:36:55;;;;;;;78.13;30.77;;;;;;;-9.04;67.27;101209.81;5015069;28;20040;-51
2021/12/27 07:39:21;;;;;;;87.15;29.30;;;;;;;-9.04;66.94;101215.00;5011968;28;20440;-49
2021/12/27 07:41:47;;;;;;;76.45;31.38;;;;;;;-9.01;67.35;101213.94;5016267;28;20033;-53
2021/12/27 07:44:13;;;;;;;84.20;29.60;;;;;;;-9.00;67.17;101211.22;5019973;28;20037;-49
2021/12/27 07:46:40;;;;;;;71.88;30.67;;;;;;;-8.97;67.51;101215.41;5016942;28;20033;-49
2021/12/27 07:49:07;;;;;;;78.00;29.70;;;;;;;-8.93;67.61;101203.84;5012874;28;20022;-49
2021/12/27 07:51:32;;;;;;;81.90;30.17;;;;;;;-8.92;67.29;101195.94;5018412;28;20508;-50
2021/12/27 07:53:58;;;;;;;76.90;31.30;;;;;;;-8.91;67.55;101202.78;5009964;28;20124;-51
2021/12/27 07:56:23;;;;;;;73.43;31.88;;;;;;;-8.87;67.76;101201.63;5015965;28;20108;-50
2021/12/27 07:58:49;;;;;;;78.00;29.92;;;;;;;-8.84;67.57;101198.78;5021100;28;20021;-51
2021/12/27 08:01:14;;;;;;;74.82;29.25;;;;;;;-8.78;67.61;101201.91;5018466;28;20034;-51
2021/12/27 08:03:40;;;;;;;75.00;29.90;;;;;;;-8.82;67.92;101200.44;5014857;28;20101;-51
2021/12/27 08:06:05;;;;;;;74.50;30.45;;;;;;;-8.80;67.63;101208.97;5013843;28;20300;-52
2021/12/27 08:08:31;;;;;;;78.43;28.83;;;;;;;-8.76;67.71;101193.06;5014273;28;20311;-51
2021/12/27 08:10:56;;;;;;;71.03;29.25;;;;;;;-8.70;67.45;101195.19;5014286;28;20033;-52
2021/12/27 08:13:22;;;;;;;73.72;29.25;;;;;;;-8.63;67.98;101195.56;5017250;28;20036;-50
2021/12/27 08:15:47;;;;;;;79.45;31.88;;;;;;;-8.60;67.29;101195.34;5016234;28;20434;-51
2021/12/27 08:18:13;;;;;;;73.32;31.00;;;;;;;-8.55;67.18;101193.25;5011800;28;20030;-53
2021/12/27 08:20:39;;;;;;;77.93;28.95;;;;;;;-8.52;68.01;101187.81;5009850;28;20046;-52
2021/12/27 08:23:04;;;;;;;75.95;31.50;;;;;;;-8.46;67.87;101186.50;5015320;28;20031;-50
2021/12/27 08:25:31;;;;;;;72.43;29.42;;;;;;;-8.45;67.32;101189.00;5013801;28;20041;-51
2021/12/27 08:27:56;;;;;;;78.60;30.55;;;;;;;-8.43;67.36;101178.50;5011015;28;20036;-51
2021/12/27 08:30:22;;;;;;;74.65;32.28;;;;;;;-8.38;67.72;101179.00;5013498;28;20022;-50
2021/12/27 08:32:48;;;;;;;74.85;30.50;;;;;;;-8.37;67.30;101168.47;5011652;28;20494;-52
2021/12/27 08:35:15;;;;;;;75.03;30.52;;;;;;;-8.32;67.43;101166.31;5018816;28;20044;-50
2021/12/27 08:37:41;;;;;;;81.30;30.05;;;;;;;-8.27;67.64;101164.19;5014466;28;20125;-50
2021/12/27 08:40:08;;;;;;;73.55;28.77;;;;;;;-8.25;67.50;101164.09;5014187;28;20060;-52
2021/12/27 08:42:33;;;;;;;75.80;27.33;;;;;;;-8.22;67.77;101158.66;5017276;28;20041;-48
2021/12/27 08:45:00;;;;;;;72.18;29.45;;;;;;;-8.16;67.16;101165.97;5017346;28;20221;-48
2021/12/27 08:47:25;;;;;;;78.35;31.08;;;;;;;-8.09;67.16;101158.53;5019588;28;20493;-49
2021/12/27 08:49:51;;;;;;;72.68;32.60;;;;;;;-8.04;67.36;101159.84;5011951;28;20121;-49
2021/12/27 08:52:16;;;;;;;76.68;32.35;;;;;;;-7.97;67.31;101157.59;5018147;28;20478;-49
2021/12/27 08:54:42;;;;;;;82.32;30.50;;;;;;;-7.90;66.88;101158.75;5011773;28;20360;-49
2021/12/27 08:57:09;;;;;;;86.00;33.00;;;;;;;-7.85;67.33;101159.25;5014470;28;20060;-49
2021/12/27 08:59:38;;;;;;;79.78;31.98;;;;;;;-7.85;66.96;101166.22;5014687;28;20074;-48
2021/12/27 09:02:05;;;;;;;81.53;30.38;;;;;;;-7.84;67.30;101171.31;5010966;28;20605;-49
2021/12/27 09:04:31;;;;;;;80.72;32.25;;;;;;;-7.82;67.56;101166.00;5014737;28;20999;-49
2021/12/27 09:06:58;;;;;;;75.30;30.48;;;;;;;-7.86;66.91;101157.59;5016621;28;20041;-49
2021/12/27 09:09:23;;;;;;;84.43;31.15;;;;;;;-7.83;67.42;101154.75;5014087;28;20061;-48
2021/12/27 09:11:49;;;;;;;76.68;33.03;;;;;;;-7.80;67.41;101154.53;5009321;28;20172;-49
2021/12/27 09:14:15;;;;;;;77.72;30.33;;;;;;;-7.71;66.78;101148.59;5011599;28;20295;-48
2021/12/27 09:16:41;;;;;;;84.07;31.88;;;;;;;-7.70;67.15;101155.47;5013517;28;20031;-49
2021/12/27 09:19:06;;;;;;;77.75;31.33;;;;;;;-7.68;67.08;101143.16;5020043;28;20493;-48
2021/12/27 09:21:32;;;;;;;72.68;29.08;;;;;;;-7.72;66.80;101140.91;5014164;28;20492;-49
2021/12/27 09:23:58;;;;;;;75.82;32.33;;;;;;;-7.69;66.99;101141.50;5010705;28;20304;-49
2021/12/27 09:26:23;;;;;;;82.60;30.83;;;;;;;-7.62;66.76;101147.03;5013193;28;20099;-48
2021/12/27 09:28:49;;;;;;;80.80;31.10;;;;;;;-7.57;66.91;101154.47;4997075;28;20033;-48
2021/12/27 09:31:14;;;;;;;86.80;32.83;;;;;;;-7.55;66.64;101150.81;5017051;28;20489;-48
2021/12/27 09:33:41;;;;;;;83.30;31.60;;;;;;;-7.48;67.02;101154.59;5014895;28;20032;-48
2021/12/27 09:36:06;;;;;;;75.40;31.48;;;;;;;-7.46;66.91;101151.88;5015178;28;20029;-50
2021/12/27 09:38:32;;;;;;;76.13;30.98;;;;;;;-7.41;66.74;101149.72;5012795;28;20018;-49
2021/12/27 09:40:57;;;;;;;83.03;31.17;;;;;;;-7.38;66.34;101146.88;5011697;28;20507;-49
2021/12/27 09:43:24;;;;;;;86.75;30.50;;;;;;;-7.31;67.14;101142.84;5013196;28;20040;-48
2021/12/27 09:45:49;;;;;;;93.43;31.67;;;;;;;-7.25;66.96;101144.94;5013600;28;20470;-48
2021/12/27 09:48:15;;;;;;;80.70;33.20;;;;;;;-7.22;66.83;101134.28;5013130;28;20148;-49
2021/12/27 09:50:47;;;;;;;80.18;32.10;;;;;;;-7.17;67.18;101128.72;5015634;28;20033;-49
2021/12/27 09:53:13;;;;;;;79.72;31.60;;;;;;;-7.15;66.72;101127.63;5017460;28;20026;-49
2021/12/27 09:55:39;;;;;;;81.30;29.88;;;;;;;-7.12;66.97;101122.19;5015249;28;20030;-50
2021/12/27 09:58:05;;;;;;;79.03;33.47;;;;;;;-7.07;66.47;101120.00;5013581;28;20413;-49
2021/12/27 10:00:32;;;;;;;76.05;30.08;;;;;;;-7.04;67.43;101117.16;5012793;28;20033;-48
2021/12/27 10:02:58;;;;;;;77.97;29.77;;;;;;;-6.97;67.05;101120.09;5013161;28;20120;-49
2021/12/27 10:05:26;;;;;;;88.15;29.85;;;;;;;-6.97;67.57;101108.84;5013142;28;20132;-49
2021/12/27 10:07:52;;;;;;;81.88;31.30;;;;;;;-6.93;67.11;101102.44;5012655;28;20066;-50
2021/12/27 10:10:18;;;;;;;69.50;29.60;;;;;;;-6.90;66.81;101108.22;5012407;28;20029;-50
2021/12/27 10:12:45;;;;;;;76.78;29.85;;;;;;;-6.88;67.56;101103.69;5014761;28;20030;-49
2021/12/27 10:15:17;;;;;;;76.75;29.35;;;;;;;-6.82;67.15;101104.97;5014572;28;20034;-48
2021/12/27 10:17:43;;;;;;;80.05;30.17;;;;;;;-6.77;66.95;101110.66;5013597;28;20057;-49
2021/12/27 10:20:12;;;;;;;68.13;29.38;;;;;;;-6.70;67.37;101103.97;5012542;28;20504;-49
2021/12/27 10:22:43;;;;;;;78.18;28.88;;;;;;;-6.66;67.42;101097.53;5019236;28;20029;-48
2021/12/27 10:25:17;;;;;;;67.38;28.17;;;;;;;-6.60;67.38;101094.44;5012045;28;20029;-48
2021/12/27 10:27:44;;;;;;;73.75;30.10;;;;;;;-6.50;67.16;101090.06;5017540;28;20573;-49
2021/12/27 10:30:18;;;;;;;73.93;29.52;;;;;;;-6.43;67.11;101091.22;5014182;28;20045;-48
2021/12/27 10:32:59;;;;;;;74.63;28.70;;;;;;;-6.38;67.71;101084.78;5016743;28;20079;-49
2021/12/27 10:35:36;;;;;;;71.88;29.15;;;;;;;-6.40;67.62;101090.97;5010090;28;20034;-49
2021/12/27 10:38:34;;;;;;;70.53;30.80;;;;;;;-6.35;67.08;101087.97;5011806;28;20498;-49
2021/12/27 10:41:04;;;;;;;64.35;28.92;;;;;;;-6.26;67.97;101086.38;5007385;28;20048;-48
2021/12/27 10:43:41;;;;;;;72.43;28.98;;;;;;;-6.20;66.96;101075.41;5012895;28;20036;-49
2021/12/27 10:46:10;;;;;;;78.90;29.23;;;;;;;-6.18;67.06;101070.88;5010927;28;20076;-48
2021/12/27 10:48:40;;;;;;;71.50;29.67;;;;;;;-6.18;67.84;101084.75;5012334;28;20049;-48
2021/12/27 10:51:06;;;;;;;74.80;29.63;;;;;;;-6.13;67.60;101073.91;5011484;28;20044;-49
2021/12/27 10:53:55;;;;;;;72.65;29.48;;;;;;;-6.13;67.61;101073.91;5014808;28;20029;-49
2021/12/27 10:56:24;;;;;;;77.95;30.15;;;;;;;-6.10;67.57;101076.28;5011692;28;20025;-49
2021/12/27 10:58:56;;;;;;;73.40;30.05;;;;;;;-6.12;67.56;101076.38;5010542;28;20018;-48
2021/12/27 11:01:24;;;;;;;72.13;30.38;;;;;;;-6.11;67.25;101064.16;5014150;28;20037;-49
2021/12/27 11:03:52;;;;;;;81.15;30.20;;;;;;;-6.11;67.70;101065.00;5009806;28;20052;-48
2021/12/27 11:06:20;;;;;;;74.90;31.42;;;;;;;-6.03;67.65;101061.72;5017096;28;20357;-49
2021/12/27 11:08:46;;;;;;;75.82;30.35;;;;;;;-6.00;67.09;101056.25;5009906;28;20113;-49
2021/12/27 11:11:16;;;;;;;81.60;30.77;;;;;;;-5.97;67.43;101047.31;5007944;28;21337;-49